createdAt,value
2018-04-30T00:02:30.633Z,13.00
2018-04-30T00:05:53.487Z,13.00
2018-04-30T00:09:16.315Z,12.90
2018-04-30T00:12:39.185Z,12.90
2018-04-30T00:16:02.097Z,12.90
2018-04-30T00:19:24.937Z,12.90
2018-04-30T00:22:47.785Z,13.00
2018-04-30T00:26:10.612Z,12.90
2018-04-30T00:29:33.483Z,12.90
2018-04-30T00:32:56.333Z,12.80
2018-04-30T00:36:19.179Z,12.90
2018-04-30T00:39:42.026Z,12.80
2018-04-30T00:43:04.876Z,12.80
2018-04-30T00:46:27.794Z,12.70
2018-04-30T00:49:50.639Z,12.70
2018-04-30T00:53:13.491Z,12.70
2018-04-30T00:56:36.348Z,12.50
2018-04-30T00:59:59.188Z,12.40
2018-04-30T01:03:22.105Z,12.40
2018-04-30T01:06:45.018Z,12.20
2018-04-30T01:10:07.873Z,11.80
2018-04-30T01:13:30.738Z,11.70
2018-04-30T01:16:53.572Z,11.40
2018-04-30T01:20:17.446Z,11.30
2018-04-30T01:23:40.286Z,11.20
2018-04-30T01:27:03.151Z,11.00
2018-04-30T01:30:25.992Z,10.90
2018-04-30T01:33:48.838Z,10.70
2018-04-30T01:37:11.766Z,10.60
2018-04-30T01:40:34.605Z,10.40
2018-04-30T01:43:57.463Z,10.20
2018-04-30T01:47:20.292Z,10.10
2018-04-30T01:50:43.133Z,10.00
2018-04-30T01:54:06.001Z,10.10
2018-04-30T01:57:28.844Z,10.10
2018-04-30T02:00:51.693Z,10.10
2018-04-30T02:04:14.545Z,10.20
2018-04-30T02:07:37.397Z,10.20
2018-04-30T02:11:00.249Z,10.10
2018-04-30T02:14:23.171Z,10.10
2018-04-30T02:17:47.039Z,9.80
2018-04-30T02:21:09.962Z,9.60
2018-04-30T02:24:32.875Z,9.60
2018-04-30T02:27:55.768Z,9.60
2018-04-30T02:31:18.629Z,9.70
2018-04-30T02:34:41.471Z,9.90
2018-04-30T02:38:04.324Z,9.80
2018-04-30T02:41:27.167Z,9.90
2018-04-30T02:44:50.043Z,10.10
2018-04-30T02:48:12.936Z,9.90
2018-04-30T02:51:35.806Z,10.10
2018-04-30T02:54:58.644Z,10.20
2018-04-30T02:58:21.572Z,10.00
2018-04-30T03:01:44.476Z,10.20
2018-04-30T03:05:07.330Z,10.30
2018-04-30T03:08:30.248Z,10.30
2018-04-30T03:11:53.112Z,10.20
2018-04-30T03:15:16.022Z,10.20
2018-04-30T03:18:38.864Z,10.30
2018-04-30T03:22:01.741Z,10.20
2018-04-30T03:25:25.408Z,10.40
2018-04-30T03:28:48.288Z,10.40
2018-04-30T03:32:11.138Z,10.50
2018-04-30T03:35:33.982Z,10.50
2018-04-30T03:38:56.841Z,10.40
2018-04-30T03:42:19.712Z,10.50
2018-04-30T03:45:43.358Z,10.40
2018-04-30T03:49:06.972Z,10.40
2018-04-30T03:52:29.850Z,10.30
2018-04-30T03:55:53.492Z,10.40
2018-04-30T03:59:17.164Z,10.40
2018-04-30T04:06:48.941Z,10.30
2018-04-30T04:10:12.616Z,10.20
2018-04-30T04:13:35.484Z,10.20
2018-04-30T04:16:58.398Z,10.30
2018-04-30T04:20:21.268Z,10.30
2018-04-30T04:23:44.180Z,10.30
2018-04-30T04:27:07.104Z,10.40
2018-04-30T04:30:29.940Z,10.50
2018-04-30T04:33:53.798Z,10.40
2018-04-30T04:37:16.735Z,10.40
2018-04-30T04:40:39.680Z,10.40
2018-04-30T04:44:03.297Z,10.50
2018-04-30T04:47:26.247Z,10.50
2018-04-30T04:50:49.080Z,10.80
2018-04-30T04:54:13.440Z,10.70
2018-04-30T04:57:36.297Z,10.70
2018-04-30T05:00:59.138Z,10.90
2018-04-30T05:04:22.085Z,11.00
2018-04-30T05:07:45.694Z,11.00
2018-04-30T05:11:08.558Z,11.00
2018-04-30T05:14:31.464Z,11.00
2018-04-30T05:17:54.302Z,11.00
2018-04-30T05:21:17.173Z,11.20
2018-04-30T05:24:40.010Z,11.10
2018-04-30T05:28:02.868Z,11.00
2018-04-30T05:31:25.802Z,10.90
2018-04-30T05:34:49.456Z,10.70
2018-04-30T05:38:13.090Z,10.60
2018-04-30T05:41:36.457Z,10.50
2018-04-30T05:45:00.184Z,10.60
2018-04-30T05:48:23.115Z,10.60
2018-04-30T05:51:46.075Z,10.60
2018-04-30T05:55:08.981Z,10.70
2018-04-30T05:58:31.868Z,10.80
2018-04-30T06:01:54.850Z,11.00
2018-04-30T06:05:17.765Z,11.10
2018-04-30T06:08:41.683Z,11.30
2018-04-30T06:12:04.997Z,11.50
2018-04-30T06:15:28.568Z,11.80
2018-04-30T06:18:52.979Z,11.80
2018-04-30T06:22:16.745Z,11.70
2018-04-30T06:25:40.460Z,11.70
2018-04-30T06:29:04.138Z,11.70
2018-04-30T06:32:27.020Z,11.70
2018-04-30T06:35:49.930Z,11.70
2018-04-30T06:39:12.808Z,11.80
2018-04-30T06:42:36.433Z,11.90
2018-04-30T06:45:59.368Z,11.90
2018-04-30T06:49:25.058Z,12.10
2018-04-30T06:52:49.833Z,12.10
2018-04-30T06:56:12.746Z,12.10
2018-04-30T06:59:35.652Z,12.30
2018-04-30T07:02:58.573Z,12.30
2018-04-30T07:06:21.502Z,12.30
2018-04-30T07:09:44.436Z,12.40
2018-04-30T07:13:07.358Z,12.20
2018-04-30T07:16:30.236Z,12.00
2018-04-30T07:19:53.886Z,11.80
2018-04-30T07:23:17.540Z,11.80
2018-04-30T07:26:40.517Z,11.80
2018-04-30T07:30:04.161Z,12.10
2018-04-30T07:33:27.164Z,12.10
2018-04-30T07:36:50.807Z,12.50
2018-04-30T07:40:14.452Z,12.60
2018-04-30T07:43:37.428Z,12.60
2018-04-30T07:47:00.298Z,12.60
2018-04-30T07:50:23.925Z,12.50
2018-04-30T07:53:46.802Z,12.50
2018-04-30T07:57:10.574Z,12.80
2018-04-30T08:00:33.423Z,12.80
2018-04-30T08:03:56.344Z,12.70
2018-04-30T08:07:19.272Z,12.80
2018-04-30T08:10:43.678Z,12.70
2018-04-30T08:14:06.570Z,12.70
2018-04-30T08:17:30.195Z,12.80
2018-04-30T08:20:53.061Z,12.80
2018-04-30T08:24:15.970Z,12.50
2018-04-30T08:27:38.816Z,12.40
2018-04-30T08:31:01.693Z,12.30
2018-04-30T08:34:25.347Z,12.50
2018-04-30T08:37:48.949Z,12.40
2018-04-30T08:41:11.801Z,12.60
2018-04-30T08:44:34.669Z,13.00
2018-04-30T08:47:57.604Z,13.00
2018-04-30T08:51:21.306Z,13.20
2018-04-30T08:54:45.257Z,13.20
2018-04-30T08:58:08.990Z,13.50
2018-04-30T09:01:31.917Z,13.50
2018-04-30T09:04:55.555Z,13.60
2018-04-30T09:08:19.193Z,13.80
2018-04-30T09:11:43.887Z,13.80
2018-04-30T09:15:07.684Z,14.10
2018-04-30T09:18:30.706Z,14.10
2018-04-30T09:21:53.709Z,14.10
2018-04-30T09:25:16.762Z,14.20
2018-04-30T09:28:39.720Z,14.30
2018-04-30T09:32:02.659Z,14.40
2018-04-30T09:35:25.564Z,14.10
2018-04-30T09:38:49.558Z,14.40
2018-04-30T09:42:14.448Z,14.80
2018-04-30T09:45:38.362Z,14.70
2018-04-30T09:49:01.271Z,14.70
2018-04-30T09:52:24.285Z,14.70
2018-04-30T09:55:47.938Z,15.10
2018-04-30T09:59:11.686Z,15.20
2018-04-30T10:02:34.547Z,15.20
2018-04-30T10:05:57.501Z,15.10
2018-04-30T10:09:21.189Z,15.20
2018-04-30T10:12:44.096Z,15.20
2018-04-30T10:16:07.815Z,15.40
2018-04-30T10:19:30.829Z,15.50
2018-04-30T10:22:53.706Z,15.70
2018-04-30T10:26:17.412Z,15.80
2018-04-30T10:29:40.403Z,15.80
2018-04-30T10:33:03.246Z,16.00
2018-04-30T10:40:42.327Z,16.90
2018-04-30T10:44:06.466Z,17.30
2018-04-30T10:47:29.370Z,17.10
2018-04-30T10:50:52.365Z,17.50
2018-04-30T10:54:15.270Z,17.60
2018-04-30T10:57:39.345Z,17.20
2018-04-30T11:01:02.280Z,16.50
2018-04-30T11:04:25.279Z,16.70
2018-04-30T11:07:48.202Z,17.50
2018-04-30T11:11:11.911Z,17.50
2018-04-30T11:14:45.579Z,18.00
2018-04-30T11:18:09.340Z,17.90
2018-04-30T11:21:33.228Z,17.90
2018-04-30T11:24:56.921Z,16.90
2018-04-30T11:28:19.921Z,16.90
2018-04-30T11:31:43.657Z,16.90
2018-04-30T11:35:08.204Z,16.70
2018-04-30T11:38:31.201Z,16.60
2018-04-30T11:41:54.151Z,16.60
2018-04-30T11:45:17.113Z,16.80
2018-04-30T11:48:40.988Z,16.80
2018-04-30T11:52:05.095Z,16.50
2018-04-30T11:55:28.924Z,16.10
2018-04-30T11:58:51.795Z,16.00
2018-04-30T12:02:15.589Z,15.80
2018-04-30T12:05:40.251Z,15.30
2018-04-30T12:09:03.119Z,15.30
2018-04-30T12:12:27.761Z,14.70
2018-04-30T12:15:50.667Z,14.70
2018-04-30T12:19:13.584Z,14.60
2018-04-30T12:22:36.484Z,14.50
2018-04-30T12:26:00.169Z,14.30
2018-04-30T12:29:23.068Z,14.20
2018-04-30T12:32:46.843Z,14.00
2018-04-30T12:36:10.558Z,14.10
2018-04-30T12:39:33.407Z,14.00
2018-04-30T12:42:56.336Z,14.20
2018-04-30T12:46:19.981Z,14.40
2018-04-30T12:49:44.359Z,14.50
2018-04-30T12:53:07.419Z,14.50
2018-04-30T12:56:31.047Z,14.20
2018-04-30T12:59:53.925Z,14.10
2018-04-30T13:03:18.571Z,13.90
2018-04-30T13:06:41.439Z,13.90
2018-04-30T13:10:04.329Z,14.10
2018-04-30T13:13:27.197Z,14.40
2018-04-30T13:16:51.582Z,14.90
2018-04-30T13:20:16.386Z,15.20
2018-04-30T13:23:39.348Z,15.10
2018-04-30T13:27:06.080Z,15.30
2018-04-30T13:30:29.703Z,15.70
2018-04-30T13:33:52.628Z,15.70
2018-04-30T13:37:15.517Z,15.80
2018-04-30T13:40:38.372Z,15.80
2018-04-30T13:44:01.290Z,16.30
2018-04-30T13:47:24.434Z,16.20
2018-04-30T13:50:47.425Z,16.00
2018-04-30T13:54:10.390Z,16.10
2018-04-30T13:57:33.767Z,16.50
2018-04-30T14:00:57.439Z,16.30
2018-04-30T14:04:20.371Z,16.30
2018-04-30T14:07:43.257Z,16.30
2018-04-30T14:11:07.047Z,16.30
2018-04-30T14:14:30.654Z,16.40
2018-04-30T14:17:53.487Z,16.40
2018-04-30T14:21:16.318Z,16.50
2018-04-30T14:24:39.968Z,16.30
2018-04-30T14:28:03.714Z,16.40
2018-04-30T14:31:26.574Z,16.40
2018-04-30T14:34:49.441Z,16.60
2018-04-30T14:38:13.057Z,15.70
2018-04-30T14:41:35.890Z,15.70
2018-04-30T14:44:58.833Z,15.80
2018-04-30T14:48:21.704Z,15.80
2018-04-30T14:51:44.551Z,16.10
2018-04-30T14:55:07.382Z,16.10
2018-04-30T14:58:30.199Z,16.10
2018-04-30T15:01:53.056Z,16.00
2018-04-30T15:05:15.957Z,16.10
2018-04-30T15:08:38.758Z,16.00
2018-04-30T15:12:01.584Z,15.90
2018-04-30T15:15:25.198Z,15.60
2018-04-30T15:18:48.052Z,15.60
2018-04-30T15:22:10.900Z,15.60
2018-04-30T15:25:33.789Z,15.60
2018-04-30T15:28:56.620Z,15.60
2018-04-30T15:32:20.234Z,15.70
2018-04-30T15:35:43.246Z,15.70
2018-04-30T15:39:06.846Z,15.80
2018-04-30T15:42:30.463Z,15.80
2018-04-30T15:45:54.527Z,15.80
2018-04-30T15:49:18.580Z,15.80
2018-04-30T15:52:42.213Z,16.00
2018-04-30T15:56:05.114Z,16.00
2018-04-30T17:22:22.041Z,16.20
2018-04-30T17:25:45.467Z,14.70
2018-04-30T17:29:08.311Z,14.60
2018-04-30T17:32:31.226Z,14.60
2018-04-30T17:35:54.380Z,14.60
2018-04-30T17:39:20.051Z,14.60
2018-04-30T17:42:42.902Z,14.60
2018-04-30T17:46:06.745Z,14.60
2018-04-30T17:49:32.272Z,14.60
2018-04-30T17:52:56.773Z,14.70
2018-04-30T17:56:19.810Z,14.60
2018-04-30T17:59:42.750Z,14.70
2018-04-30T18:03:05.590Z,14.70
2018-04-30T18:06:28.504Z,14.70
2018-04-30T18:09:51.384Z,14.60
2018-04-30T18:13:15.095Z,14.60
2018-04-30T18:16:38.043Z,14.60
2018-04-30T18:20:00.927Z,14.60
2018-04-30T19:46:17.450Z,12.20
2018-04-30T19:49:40.341Z,12.10
2018-04-30T19:53:04.852Z,12.20
2018-04-30T19:56:27.799Z,12.20
2018-04-30T20:29:42.879Z,11.90
2018-04-30T20:33:05.813Z,11.80
2018-04-30T20:36:29.453Z,11.70
2018-04-30T20:39:52.480Z,11.70
2018-04-30T20:43:15.384Z,11.60
2018-04-30T20:46:39.075Z,11.50
2018-04-30T20:50:01.933Z,11.50
2018-04-30T20:53:24.872Z,11.60
2018-04-30T20:56:48.510Z,11.50
2018-04-30T21:00:12.166Z,11.60
2018-04-30T21:03:35.875Z,11.60
2018-04-30T21:06:58.915Z,11.60
2018-04-30T21:10:21.796Z,11.40
2018-04-30T21:13:45.498Z,11.30
2018-04-30T21:17:08.379Z,11.30
2018-04-30T21:20:31.247Z,11.20
2018-04-30T21:23:54.177Z,11.10
2018-04-30T21:27:17.038Z,11.10
2018-04-30T21:30:39.881Z,11.10
2018-04-30T21:34:02.803Z,11.10
2018-04-30T21:37:25.653Z,11.00
2018-04-30T21:40:48.579Z,11.00
2018-04-30T21:44:11.480Z,11.10
2018-04-30T21:47:34.514Z,11.10
2018-04-30T21:50:57.415Z,11.20
2018-04-30T21:54:20.322Z,11.10
2018-04-30T23:20:36.366Z,11.10
2018-04-30T23:23:59.277Z,11.10
2018-04-30T23:27:22.142Z,11.20
2018-04-30T23:30:45.002Z,11.20
2018-04-30T23:34:08.635Z,11.30
2018-04-30T23:37:31.543Z,11.30
2018-04-30T23:40:54.403Z,11.30
2018-04-30T23:44:17.303Z,11.30
2018-04-30T23:47:40.157Z,11.30
2018-04-30T23:51:03.013Z,11.30
2018-04-30T23:54:25.858Z,11.40
2018-04-30T23:57:48.838Z,11.30
